Lemhi County Airport
KSMN : rendu visible

Aérodrome :











RETROUVEZ-NOUS SUR...

 
LOGIN :

S'inscrire | Disclaimer

   EN    FR    IT 

 









Légende :    VFR   VFR Marginal   IFR   IFR Intensif   IFR Très Intensif
Visi : 
Plafond : 
>= 8 km
>= 3000ft
5 à 8 km
1000 à 3000 ft
1500m à 5 km
500 à 1000 ft
800 à 1500m
200 à 500 ft
< 800m
< 200 ft
Symboles :   Orages  Brouillard  Fortes neiges  Fortes précipitations  Vent > 20 kt






- Altitude de l'aérodrome : 4043 ft


KSMN - Lemhi County

DERNIER METAR :
  • 210756Z AUTO 02007KT 10SM CLR M03/M07 A3007 RMK AO2 SLP214 T10331067 FZRANO

METARs EXPIRÉS :
  • 210656Z AUTO 36007KT 10SM BKN048 M02/M07 A3008 RMK AO2 SLP216 T10171067 400561022 FZRANO
  • 210556Z AUTO 34008KT 10SM BKN050 M01/M06 A3008 RMK AO2 SLP217 T10111061 10039 21017 51013 FZRANO

TAF KSMN
Valide du 21 à 06h jusqu'au 22 à 06h UTC


210532Z 2106/2206 02004KT P6SM BKN050
FM211000 VRB03KT P6SM SKC



MET'MAP, la Météo Aéronautique d'un coup d'oeil ! - Copyright ORBIFLY Décembre 2007 - Disclaimer

ORBIFLY MET'MAP TEAM :

Programmation & Développement : Alexandra Zaïnal
Conception & Développement : Baudouin d'Aumeries
Co-Programmation & Développement : Marc-Olivier Méhu
Soutien technique & logistique : Manuel Goepfert

Contact : metmap@orbifly.com




SOURCES & CREDITS :

   NOAA       Earth
Advisory